sensor_id;sensor_type;location;lat;lon;timestamp;pressure;altitude;pressure_sealevel;temperature;humidity
6565;BME280;3316;44.118;27.258;2023-02-23T00:01:36;101255.31;;;7.60;100.00
6565;BME280;3316;44.118;27.258;2023-02-23T00:04:02;101257.91;;;7.59;100.00
6565;BME280;3316;44.118;27.258;2023-02-23T00:06:29;101269.34;;;7.65;100.00
6565;BME280;3316;44.118;27.258;2023-02-23T00:08:55;101270.25;;;7.69;100.00
6565;BME280;3316;44.118;27.258;2023-02-23T00:11:22;101264.97;;;7.64;100.00
6565;BME280;3316;44.118;27.258;2023-02-23T00:13:49;101265.81;;;7.60;100.00
6565;BME280;3316;44.118;27.258;2023-02-23T00:16:20;101277.09;;;7.55;100.00
6565;BME280;3316;44.118;27.258;2023-02-23T00:18:48;101265.75;;;7.56;100.00
6565;BME280;3316;44.118;27.258;2023-02-23T00:21:17;101258.69;;;7.49;100.00
6565;BME280;3316;44.118;27.258;2023-02-23T00:23:51;101272.69;;;7.52;100.00
6565;BME280;3316;44.118;27.258;2023-02-23T00:26:19;101277.09;;;7.55;100.00
6565;BME280;3316;44.118;27.258;2023-02-23T00:28:47;101270.06;;;7.51;100.00
6565;BME280;3316;44.118;27.258;2023-02-23T00:31:13;101258.69;;;7.49;100.00
6565;BME280;3316;44.118;27.258;2023-02-23T00:33:39;101273.59;;;7.56;100.00
6565;BME280;3316;44.118;27.258;2023-02-23T00:36:10;101248.31;;;7.61;100.00
6565;BME280;3316;44.118;27.258;2023-02-23T00:38:37;101249.13;;;7.55;100.00
6565;BME280;3316;44.118;27.258;2023-02-23T00:41:05;101261.56;;;7.74;100.00
6565;BME280;3316;44.118;27.258;2023-02-23T00:43:36;101266.78;;;7.68;100.00
6565;BME280;3316;44.118;27.258;2023-02-23T00:46:02;101229.97;;;7.58;100.00
6565;BME280;3316;44.118;27.258;2023-02-23T00:48:34;101241.34;;;7.61;100.00
6565;BME280;3316;44.118;27.258;2023-02-23T00:51:04;101241.44;;;7.69;100.00
6565;BME280;3316;44.118;27.258;2023-02-23T00:53:30;101250.19;;;7.69;100.00
6565;BME280;3316;44.118;27.258;2023-02-23T00:55:56;101238.66;;;7.55;100.00
6565;BME280;3316;44.118;27.258;2023-02-23T00:58:23;101249.97;;;7.51;100.00
6565;BME280;3316;44.118;27.258;2023-02-23T01:00:49;101241.25;;;7.52;100.00
6565;BME280;3316;44.118;27.258;2023-02-23T01:03:15;101239.56;;;7.57;100.00
6565;BME280;3316;44.118;27.258;2023-02-23T01:05:40;101238.88;;;7.70;100.00
6565;BME280;3316;44.118;27.258;2023-02-23T01:08:06;101241.38;;;7.63;100.00
6565;BME280;3316;44.118;27.258;2023-02-23T01:10:41;101249.28;;;7.69;100.00
6565;BME280;3316;44.118;27.258;2023-02-23T01:13:09;101242.25;;;7.62;100.00
6565;BME280;3316;44.118;27.258;2023-02-23T01:15:42;101243.09;;;7.61;100.00
6565;BME280;3316;44.118;27.258;2023-02-23T01:18:11;101228.16;;;7.51;100.00
6565;BME280;3316;44.118;27.258;2023-02-23T01:20:38;101242.09;;;7.51;100.00
6565;BME280;3316;44.118;27.258;2023-02-23T01:23:06;101242.09;;;7.51;100.00
6565;BME280;3316;44.118;27.258;2023-02-23T01:25:32;101241.28;;;7.55;100.00
6565;BME280;3316;44.118;27.258;2023-02-23T01:27:58;101247.41;;;7.54;100.00
6565;BME280;3316;44.118;27.258;2023-02-23T01:30:23;101237.59;;;7.38;100.00
6565;BME280;3316;44.118;27.258;2023-02-23T01:32:48;101241.94;;;7.36;100.00
6565;BME280;3316;44.118;27.258;2023-02-23T01:35:15;101230.63;;;7.37;100.00
6565;BME280;3316;44.118;27.258;2023-02-23T01:37:41;101247.31;;;7.47;100.00
6565;BME280;3316;44.118;27.258;2023-02-23T01:40:12;101243.81;;;7.48;100.00
6565;BME280;3316;44.118;27.258;2023-02-23T01:42:42;101253.47;;;7.50;100.00
6565;BME280;3316;44.118;27.258;2023-02-23T01:45:24;101250.03;;;7.54;100.00
6565;BME280;3316;44.118;27.258;2023-02-23T01:47:53;101247.31;;;7.47;100.00
6565;BME280;3316;44.118;27.258;2023-02-23T01:50:20;101247.34;;;7.50;100.00
6565;BME280;3316;44.118;27.258;2023-02-23T01:52:49;101240.38;;;7.50;100.00
6565;BME280;3316;44.118;27.258;2023-02-23T01:55:16;101253.47;;;7.53;100.00
6565;BME280;3316;44.118;27.258;2023-02-23T01:57:49;101257.00;;;7.57;100.00
6565;BME280;3316;44.118;27.258;2023-02-23T02:00:18;101251.69;;;7.49;100.00
6565;BME280;3316;44.118;27.258;2023-02-23T02:02:45;101257.06;;;7.60;100.00
6565;BME280;3316;44.118;27.258;2023-02-23T02:05:15;101226.47;;;7.57;100.00
6565;BME280;3316;44.118;27.258;2023-02-23T02:07:46;101249.28;;;7.64;100.00
6565;BME280;3316;44.118;27.258;2023-02-23T02:10:16;101246.59;;;7.61;100.00
6565;BME280;3316;44.118;27.258;2023-02-23T02:13:02;101254.59;;;7.73;100.00
6565;BME280;3316;44.118;27.258;2023-02-23T02:15:32;101237.97;;;7.68;100.00
6565;BME280;3316;44.118;27.258;2023-02-23T02:18:13;101242.47;;;7.83;100.00
6565;BME280;3316;44.118;27.258;2023-02-23T02:21:17;101253.78;;;7.80;100.00
6565;BME280;3316;44.118;27.258;2023-02-23T02:30:05;101265.13;;;7.78;100.00
6565;BME280;3316;44.118;27.258;2023-02-23T02:35:26;101264.31;;;7.83;100.00
6565;BME280;3316;44.118;27.258;2023-02-23T02:40:45;101261.56;;;7.74;100.00
6565;BME280;3316;44.118;27.258;2023-02-23T02:43:30;101249.38;;;7.76;100.00
6565;BME280;3316;44.118;27.258;2023-02-23T02:49:33;101254.59;;;7.73;100.00
6565;BME280;3316;44.118;27.258;2023-02-23T02:52:04;101258.13;;;7.78;100.00
6565;BME280;3316;44.118;27.258;2023-02-23T02:54:37;101266.06;;;7.84;100.00
6565;BME280;3316;44.118;27.258;2023-02-23T02:57:04;101262.59;;;7.88;100.00
6565;BME280;3316;44.118;27.258;2023-02-23T02:59:30;101273.16;;;7.91;100.00
6565;BME280;3316;44.118;27.258;2023-02-23T03:02:24;101283.63;;;7.91;100.00
6565;BME280;3316;44.118;27.258;2023-02-23T03:11:09;101275.72;;;7.90;100.00
6565;BME280;3316;44.118;27.258;2023-02-23T03:17:07;101285.38;;;7.94;100.00
6565;BME280;3316;44.118;27.258;2023-02-23T03:26:03;101294.16;;;7.97;100.00
6565;BME280;3316;44.118;27.258;2023-02-23T03:29:06;101292.41;;;7.96;100.00
6565;BME280;3316;44.118;27.258;2023-02-23T03:32:02;101280.16;;;7.95;100.00
6565;BME280;3316;44.118;27.258;2023-02-23T03:37:52;101303.84;;;8.06;100.00
6565;BME280;3316;44.118;27.258;2023-02-23T03:40:40;101310.00;;;8.09;100.00
6565;BME280;3316;44.118;27.258;2023-02-23T03:43:35;101300.34;;;8.05;100.00
6565;BME280;3316;44.118;27.258;2023-02-23T03:46:20;101233.56;;;7.64;100.00
6565;BME280;3316;44.118;27.258;2023-02-23T03:49:08;101309.97;;;8.06;100.00
6565;BME280;3316;44.118;27.258;2023-02-23T03:51:58;101306.44;;;8.03;100.00
6565;BME280;3316;44.118;27.258;2023-02-23T03:54:53;101320.53;;;8.13;100.00
6565;BME280;3316;44.118;27.258;2023-02-23T03:57:40;101319.56;;;8.04;100.00
6565;BME280;3316;44.118;27.258;2023-02-23T04:00:31;101320.47;;;8.09;100.00
6565;BME280;3316;44.118;27.258;2023-02-23T04:03:18;101324.88;;;8.10;100.00
6565;BME280;3316;44.118;27.258;2023-02-23T04:06:06;101320.44;;;8.03;100.00
6565;BME280;3316;44.118;27.258;2023-02-23T04:08:52;101320.44;;;8.03;100.00
6565;BME280;3316;44.118;27.258;2023-02-23T04:11:59;101308.19;;;8.01;100.00
6565;BME280;3316;44.118;27.258;2023-02-23T04:17:26;101337.91;;;8.04;100.00
6565;BME280;3316;44.118;27.258;2023-02-23T04:19:53;101324.00;;;8.10;100.00
6565;BME280;3316;44.118;27.258;2023-02-23T04:22:21;101326.50;;;7.99;100.00
6565;BME280;3316;44.118;27.258;2023-02-23T04:24:47;101327.34;;;7.98;100.00
6565;BME280;3316;44.118;27.258;2023-02-23T04:27:13;101338.81;;;8.09;100.00
6565;BME280;3316;44.118;27.258;2023-02-23T04:29:39;101338.97;;;8.22;100.00
6565;BME280;3316;44.118;27.258;2023-02-23T04:32:06;101290.59;;;7.92;100.00
6565;BME280;3316;44.118;27.258;2023-02-23T04:34:32;101332.81;;;8.15;100.00
6565;BME280;3316;44.118;27.258;2023-02-23T04:36:57;101330.88;;;8.02;100.00
6565;BME280;3316;44.118;27.258;2023-02-23T04:39:23;101317.72;;;7.96;100.00
6565;BME280;3316;44.118;27.258;2023-02-23T04:41:48;101316.78;;;7.89;100.00
6565;BME280;3316;44.118;27.258;2023-02-23T04:44:17;101335.16;;;7.92;100.00
6565;BME280;3316;44.118;27.258;2023-02-23T04:46:43;101337.75;;;7.92;100.00
6565;BME280;3316;44.118;27.258;2023-02-23T04:49:08;101334.19;;;7.84;100.00
6565;BME280;3316;44.118;27.258;2023-02-23T04:51:34;101334.22;;;7.87;100.00
6565;BME280;3316;44.118;27.258;2023-02-23T04:54:01;101341.19;;;7.85;100.00
6565;BME280;3316;44.118;27.258;2023-02-23T04:56:27;101347.41;;;7.93;100.00
6565;BME280;3316;44.118;27.258;2023-02-23T04:58:53;101334.19;;;7.84;100.00
6565;BME280;3316;44.118;27.258;2023-02-23T05:01:18;101338.50;;;7.82;100.00
6565;BME280;3316;44.118;27.258;2023-02-23T05:03:46;101352.50;;;7.83;100.00
6565;BME280;3316;44.118;27.258;2023-02-23T05:06:11;101356.81;;;7.78;100.00
6565;BME280;3316;44.118;27.258;2023-02-23T05:08:38;101343.63;;;7.70;100.00
6565;BME280;3316;44.118;27.258;2023-02-23T05:11:05;101363.72;;;7.74;100.00
6565;BME280;3316;44.118;27.258;2023-02-23T05:13:31;101353.22;;;7.68;100.00
6565;BME280;3316;44.118;27.258;2023-02-23T05:15:57;101370.66;;;7.69;100.00
6565;BME280;3316;44.118;27.258;2023-02-23T05:18:23;101375.09;;;7.75;100.00
6565;BME280;3316;44.118;27.258;2023-02-23T05:20:49;101372.47;;;7.73;100.00
6565;BME280;3316;44.118;27.258;2023-02-23T05:23:15;101383.03;;;7.79;100.00
6565;BME280;3316;44.118;27.258;2023-02-23T05:25:40;101388.19;;;7.73;100.00
6565;BME280;3316;44.118;27.258;2023-02-23T05:28:06;101347.75;;;7.53;100.00
6565;BME280;3316;44.118;27.258;2023-02-23T05:30:32;101377.69;;;7.70;100.00
6565;BME280;3316;44.118;27.258;2023-02-23T05:32:58;101394.31;;;7.74;100.00
6565;BME280;3316;44.118;27.258;2023-02-23T05:35:23;101393.34;;;7.69;100.00
6565;BME280;3316;44.118;27.258;2023-02-23T05:37:49;101338.00;;;7.43;100.00
6565;BME280;3316;44.118;27.258;2023-02-23T05:40:14;101393.41;;;7.70;100.00
6565;BME280;3316;44.118;27.258;2023-02-23T05:42:40;101403.06;;;7.76;100.00
6565;BME280;3316;44.118;27.258;2023-02-23T05:45:06;101390.88;;;7.78;100.00
6565;BME280;3316;44.118;27.258;2023-02-23T05:47:32;101408.41;;;7.82;100.00
6565;BME280;3316;44.118;27.258;2023-02-23T05:50:07;101403.16;;;7.82;100.00
6565;BME280;3316;44.118;27.258;2023-02-23T05:52:36;101413.63;;;7.82;100.00
6565;BME280;3316;44.118;27.258;2023-02-23T05:55:02;101424.97;;;7.82;100.00
6565;BME280;3316;44.118;27.258;2023-02-23T05:57:29;101418.09;;;7.92;100.00
6565;BME280;3316;44.118;27.258;2023-02-23T05:59:54;101440.03;;;7.95;100.00
6565;BME280;3316;44.118;27.258;2023-02-23T06:02:20;101436.53;;;7.98;100.00
6565;BME280;3316;44.118;27.258;2023-02-23T06:04:45;101425.19;;;7.97;100.00
6565;BME280;3316;44.118;27.258;2023-02-23T06:07:11;101428.66;;;7.95;100.00
6565;BME280;3316;44.118;27.258;2023-02-23T06:09:36;101449.63;;;7.96;100.00
6565;BME280;3316;44.118;27.258;2023-02-23T06:12:02;101411.84;;;7.79;100.00
6565;BME280;3316;44.118;27.258;2023-02-23T06:14:27;101458.47;;;8.03;100.00
6565;BME280;3316;44.118;27.258;2023-02-23T06:16:53;101461.06;;;8.03;100.00
6565;BME280;3316;44.118;27.258;2023-02-23T06:19:19;101467.22;;;8.03;100.00
6565;BME280;3316;44.118;27.258;2023-02-23T06:21:45;101451.41;;;8.00;100.00
6565;BME280;3316;44.118;27.258;2023-02-23T06:24:11;101461.16;;;8.09;100.00
6565;BME280;3316;44.118;27.258;2023-02-23T06:26:36;101445.38;;;8.06;100.00
6565;BME280;3316;44.118;27.258;2023-02-23T06:29:02;101469.19;;;8.23;100.00
6565;BME280;3316;44.118;27.258;2023-02-23T06:31:28;101481.63;;;8.39;100.00
6565;BME280;3316;44.118;27.258;2023-02-23T06:33:53;101477.28;;;8.39;100.00
6565;BME280;3316;44.118;27.258;2023-02-23T06:36:19;101481.88;;;8.58;100.00
6565;BME280;3316;44.118;27.258;2023-02-23T06:38:44;101482.88;;;8.68;100.00
6565;BME280;3316;44.118;27.258;2023-02-23T06:41:10;101489.19;;;8.86;100.00
6565;BME280;3316;44.118;27.258;2023-02-23T06:43:36;101485.03;;;9.11;100.00
6565;BME280;3316;44.118;27.258;2023-02-23T06:46:02;101506.94;;;9.12;100.00
6565;BME280;3316;44.118;27.258;2023-02-23T06:48:28;101503.25;;;8.93;100.00
6565;BME280;3316;44.118;27.258;2023-02-23T06:50:57;101512.09;;;9.01;100.00
6565;BME280;3316;44.118;27.258;2023-02-23T06:53:22;101507.47;;;8.77;100.00
6565;BME280;3316;44.118;27.258;2023-02-23T06:55:49;101498.56;;;8.65;100.00
6565;BME280;3316;44.118;27.258;2023-02-23T06:58:14;101507.25;;;8.61;100.00
6565;BME280;3316;44.118;27.258;2023-02-23T07:00:40;101491.44;;;8.50;100.00
6565;BME280;3316;44.118;27.258;2023-02-23T07:03:08;101506.44;;;8.62;100.00
6565;BME280;3316;44.118;27.258;2023-02-23T07:05:34;101509.97;;;8.70;100.00
6565;BME280;3316;44.118;27.258;2023-02-23T07:07:59;101506.44;;;8.63;100.00
6565;BME280;3316;44.118;27.258;2023-02-23T07:10:25;101501.13;;;8.59;100.00
6565;BME280;3316;44.118;27.258;2023-02-23T07:12:52;101497.75;;;8.67;100.00
6565;BME280;3316;44.118;27.258;2023-02-23T07:15:18;101513.69;;;8.88;100.00
6565;BME280;3316;44.118;27.258;2023-02-23T07:17:44;101499.59;;;8.77;100.00
6565;BME280;3316;44.118;27.258;2023-02-23T07:20:16;101512.25;;;9.16;100.00
6565;BME280;3316;44.118;27.258;2023-02-23T07:22:41;101520.75;;;10.01;100.00
6565;BME280;3316;44.118;27.258;2023-02-23T07:25:07;101535.53;;;9.83;100.00
6565;BME280;3316;44.118;27.258;2023-02-23T07:27:34;101529.97;;;9.40;100.00
6565;BME280;3316;44.118;27.258;2023-02-23T07:29:59;101528.75;;;9.06;100.00
6565;BME280;3316;44.118;27.258;2023-02-23T07:32:28;101540.16;;;9.08;100.00
6565;BME280;3316;44.118;27.258;2023-02-23T07:34:54;101534.13;;;9.17;100.00
6565;BME280;3316;44.118;27.258;2023-02-23T07:37:19;101533.13;;;9.07;100.00
6565;BME280;3316;44.118;27.258;2023-02-23T07:39:45;101542.63;;;8.93;100.00
6565;BME280;3316;44.118;27.258;2023-02-23T07:42:11;101535.59;;;8.89;100.00
6565;BME280;3316;44.118;27.258;2023-02-23T07:44:38;101515.22;;;8.70;100.00
6565;BME280;3316;44.118;27.258;2023-02-23T07:47:04;101558.25;;;8.81;100.00
6565;BME280;3316;44.118;27.258;2023-02-23T07:49:30;101562.53;;;8.74;100.00
6565;BME280;3316;44.118;27.258;2023-02-23T07:51:55;101551.19;;;8.77;100.00
6565;BME280;3316;44.118;27.258;2023-02-23T07:54:21;101549.72;;;9.02;100.00
6565;BME280;3316;44.118;27.258;2023-02-23T07:56:46;101557.91;;;9.30;100.00
6565;BME280;3316;44.118;27.258;2023-02-23T07:59:12;101557.13;;;9.42;100.00
6565;BME280;3316;44.118;27.258;2023-02-23T08:01:38;101550.88;;;9.29;100.00
6565;BME280;3316;44.118;27.258;2023-02-23T08:04:04;101560.53;;;9.30;100.00
6565;BME280;3316;44.118;27.258;2023-02-23T08:06:30;101544.78;;;9.35;100.00
6565;BME280;3316;44.118;27.258;2023-02-23T08:08:58;101552.53;;;9.21;100.00
6565;BME280;3316;44.118;27.258;2023-02-23T08:11:24;101560.38;;;9.17;100.00
6565;BME280;3316;44.118;27.258;2023-02-23T08:13:52;101567.38;;;9.16;100.00
6565;BME280;3316;44.118;27.258;2023-02-23T08:16:18;101560.47;;;9.24;100.00
6565;BME280;3316;44.118;27.258;2023-02-23T08:18:43;101549.00;;;9.19;100.00
6565;BME280;3316;44.118;27.258;2023-02-23T08:21:09;101575.41;;;9.31;100.00
6565;BME280;3316;44.118;27.258;2023-02-23T08:23:34;101577.25;;;9.44;100.00
6565;BME280;3316;44.118;27.258;2023-02-23T08:26:00;101565.72;;;9.24;100.00
6565;BME280;3316;44.118;27.258;2023-02-23T08:28:27;101576.31;;;9.36;100.00
6565;BME280;3316;44.118;27.258;2023-02-23T08:30:53;101580.84;;;9.52;100.00
6565;BME280;3316;44.118;27.258;2023-02-23T08:33:19;101586.91;;;9.44;100.00
6565;BME280;3316;44.118;27.258;2023-02-23T08:35:45;101570.06;;;9.22;100.00
6565;BME280;3316;44.118;27.258;2023-02-23T08:38:10;101589.53;;;9.44;100.00
6565;BME280;3316;44.118;27.258;2023-02-23T08:40:36;101573.59;;;9.27;100.00
6565;BME280;3316;44.118;27.258;2023-02-23T08:43:01;101563.16;;;9.30;100.00
6565;BME280;3316;44.118;27.258;2023-02-23T08:45:27;101590.56;;;9.62;100.00
6565;BME280;3316;44.118;27.258;2023-02-23T08:47:54;101580.97;;;9.67;100.00
6565;BME280;3316;44.118;27.258;2023-02-23T08:50:20;101603.28;;;10.15;100.00
6565;BME280;3316;44.118;27.258;2023-02-23T08:52:45;101597.56;;;10.91;100.00
6565;BME280;3316;44.118;27.258;2023-02-23T08:55:11;101595.00;;;11.27;100.00
6565;BME280;3316;44.118;27.258;2023-02-23T08:57:38;101602.00;;;11.07;100.00
6565;BME280;3316;44.118;27.258;2023-02-23T09:00:05;101596.81;;;11.63;100.00
6565;BME280;3316;44.118;27.258;2023-02-23T09:02:39;101603.00;;;12.15;100.00
6565;BME280;3316;44.118;27.258;2023-02-23T09:05:06;101607.41;;;11.95;100.00
6565;BME280;3316;44.118;27.258;2023-02-23T09:07:32;101600.34;;;11.65;100.00
6565;BME280;3316;44.118;27.258;2023-02-23T09:09:57;101609.09;;;11.43;100.00
6565;BME280;3316;44.118;27.258;2023-02-23T09:12:23;101611.78;;;12.09;100.00
6565;BME280;3316;44.118;27.258;2023-02-23T09:14:49;101595.91;;;11.41;100.00
6565;BME280;3316;44.118;27.258;2023-02-23T09:17:18;101605.63;;;11.56;100.00
6565;BME280;3316;44.118;27.258;2023-02-23T09:19:44;101594.97;;;11.12;100.00
6565;BME280;3316;44.118;27.258;2023-02-23T09:22:09;101602.81;;;10.91;100.00
6565;BME280;3316;44.118;27.258;2023-02-23T09:24:34;101634.53;;;11.24;100.00
6565;BME280;3316;44.118;27.258;2023-02-23T09:27:00;101613.31;;;10.84;100.00
6565;BME280;3316;44.118;27.258;2023-02-23T09:29:25;101614.06;;;10.54;100.00
6565;BME280;3316;44.118;27.258;2023-02-23T09:31:51;101617.59;;;10.63;100.00
6565;BME280;3316;44.118;27.258;2023-02-23T09:34:18;101611.41;;;10.51;100.00
6565;BME280;3316;44.118;27.258;2023-02-23T09:36:43;101606.19;;;10.63;100.00
6565;BME280;3316;44.118;27.258;2023-02-23T09:39:09;101625.59;;;10.80;100.00
6565;BME280;3316;44.118;27.258;2023-02-23T09:41:52;101566.75;;;10.64;100.00
6565;BME280;3316;44.118;27.258;2023-02-23T09:47:20;101630.84;;;10.75;100.00
6565;BME280;3316;44.118;27.258;2023-02-23T09:49:51;101634.97;;;10.31;100.00
6565;BME280;3316;44.118;27.258;2023-02-23T09:52:40;101637.47;;;10.13;100.00
6565;BME280;3316;44.118;27.258;2023-02-23T09:55:09;101622.28;;;9.85;100.00
6565;BME280;3316;44.118;27.258;2023-02-23T09:57:39;101631.31;;;10.13;100.00
6565;BME280;3316;44.118;27.258;2023-02-23T10:00:23;101638.38;;;10.17;100.00
6565;BME280;3316;44.118;27.258;2023-02-23T10:03:11;101626.75;;;9.92;100.00
6565;BME280;3316;44.118;27.258;2023-02-23T10:06:02;101649.41;;;9.79;100.00
6565;BME280;3316;44.118;27.258;2023-02-23T10:09:20;101651.97;;;9.70;100.00
6565;BME280;3316;44.118;27.258;2023-02-23T10:11:36;101647.56;;;9.69;100.00
6565;BME280;3316;44.118;27.258;2023-02-23T10:14:15;101653.63;;;9.59;100.00
6565;BME280;3316;44.118;27.258;2023-02-23T10:19:25;101657.34;;;9.81;100.00
6565;BME280;3316;44.118;27.258;2023-02-23T10:21:56;101644.13;;;9.75;100.00
6565;BME280;3316;44.118;27.258;2023-02-23T10:24:52;101640.34;;;9.47;100.00
6565;BME280;3316;44.118;27.258;2023-02-23T10:27:23;101655.38;;;9.60;100.00
6565;BME280;3316;44.118;27.258;2023-02-23T10:29:57;101643.75;;;9.40;100.00
6565;BME280;3316;44.118;27.258;2023-02-23T10:32:40;101648.25;;;9.49;100.00
6565;BME280;3316;44.118;27.258;2023-02-23T10:35:21;101647.22;;;9.33;100.00
6565;BME280;3316;44.118;27.258;2023-02-23T10:37:48;101658.47;;;9.23;100.00
6565;BME280;3316;44.118;27.258;2023-02-23T10:40:24;101643.47;;;9.13;100.00
6565;BME280;3316;44.118;27.258;2023-02-23T10:42:52;101646.19;;;9.21;100.00
6565;BME280;3316;44.118;27.258;2023-02-23T10:45:21;101660.22;;;9.23;100.00
6565;BME280;3316;44.118;27.258;2023-02-23T10:48:00;101662.66;;;9.06;100.00
6565;BME280;3316;44.118;27.258;2023-02-23T10:50:27;101654.50;;;8.85;100.00
6565;BME280;3316;44.118;27.258;2023-02-23T10:52:59;101651.72;;;8.74;100.00
6565;BME280;3316;44.118;27.258;2023-02-23T10:55:30;101626.31;;;8.72;100.00
6565;BME280;3316;44.118;27.258;2023-02-23T10:58:18;101642.78;;;8.59;100.00
6565;BME280;3316;44.118;27.258;2023-02-23T11:00:53;101650.72;;;8.62;100.00
6565;BME280;3316;44.118;27.258;2023-02-23T11:05:57;101657.81;;;8.72;100.00
6565;BME280;3316;44.118;27.258;2023-02-23T11:10:57;101655.97;;;8.62;100.00
6565;BME280;3316;44.118;27.258;2023-02-23T11:13:25;101645.38;;;8.56;100.00
6565;BME280;3316;44.118;27.258;2023-02-23T11:16:05;101633.88;;;8.46;100.00
6565;BME280;3316;44.118;27.258;2023-02-23T11:18:31;101642.56;;;8.44;100.00
6565;BME280;3316;44.118;27.258;2023-02-23T11:20:57;101635.63;;;8.49;100.00
6565;BME280;3316;44.118;27.258;2023-02-23T11:23:26;101634.69;;;8.42;100.00
6565;BME280;3316;44.118;27.258;2023-02-23T11:26:03;101644.31;;;8.43;100.00
6565;BME280;3316;44.118;27.258;2023-02-23T11:28:36;101644.41;;;8.51;100.00
6565;BME280;3316;44.118;27.258;2023-02-23T11:31:25;101644.38;;;8.48;100.00
6565;BME280;3316;44.118;27.258;2023-02-23T11:33:54;101638.22;;;8.44;100.00
6565;BME280;3316;44.118;27.258;2023-02-23T11:41:38;101653.69;;;8.28;100.00
6565;BME280;3316;44.118;27.258;2023-02-23T11:44:04;101630.66;;;8.11;100.00
6565;BME280;3316;44.118;27.258;2023-02-23T11:46:32;101647.63;;;8.32;100.00
6565;BME280;3316;44.118;27.258;2023-02-23T11:49:03;101653.75;;;8.32;100.00
6565;BME280;3316;44.118;27.258;2023-02-23T11:51:35;101644.78;;;8.20;100.00
6565;BME280;3316;44.118;27.258;2023-02-23T11:54:02;101638.63;;;8.16;100.00
6565;BME280;3316;44.118;27.258;2023-02-23T11:56:31;101638.44;;;8.05;100.00
6565;BME280;3316;44.118;27.258;2023-02-23T11:59:01;101644.53;;;8.03;100.00
6565;BME280;3316;44.118;27.258;2023-02-23T12:01:48;101648.19;;;8.14;100.00
6565;BME280;3316;44.118;27.258;2023-02-23T12:04:27;101649.81;;;8.07;100.00
6565;BME280;3316;44.118;27.258;2023-02-23T12:10:23;101651.50;;;8.02;100.00
6565;BME280;3316;44.118;27.258;2023-02-23T12:18:16;101652.34;;;8.00;100.00
6565;BME280;3316;44.118;27.258;2023-02-23T12:20:45;101676.88;;;8.03;100.00
6565;BME280;3316;44.118;27.258;2023-02-23T12:23:18;101667.22;;;8.01;100.00
6565;BME280;3316;44.118;27.258;2023-02-23T12:26:18;101670.53;;;7.89;100.00
6565;BME280;3316;44.118;27.258;2023-02-23T12:28:51;101671.25;;;7.82;100.00
6565;BME280;3316;44.118;27.258;2023-02-23T12:34:29;101682.81;;;7.93;100.00
6565;BME280;3316;44.118;27.258;2023-02-23T12:37:03;101643.19;;;7.75;100.00
6565;BME280;3316;44.118;27.258;2023-02-23T12:39:43;101671.31;;;7.85;100.00
6565;BME280;3316;44.118;27.258;2023-02-23T12:42:19;101669.72;;;7.93;100.00
6565;BME280;3316;44.118;27.258;2023-02-23T12:44:55;101676.78;;;7.97;100.00
6565;BME280;3316;44.118;27.258;2023-02-23T12:47:40;101671.31;;;7.84;100.00
6565;BME280;3316;44.118;27.258;2023-02-23T12:50:31;101686.16;;;7.86;100.00
6565;BME280;3316;44.118;27.258;2023-02-23T12:53:13;101697.34;;;7.76;100.00
6565;BME280;3316;44.118;27.258;2023-02-23T12:58:34;101696.28;;;7.67;100.00
6565;BME280;3316;44.118;27.258;2023-02-23T13:01:07;101700.56;;;7.60;100.00
6565;BME280;3316;44.118;27.258;2023-02-23T13:03:49;101699.91;;;7.72;100.00
6565;BME280;3316;44.118;27.258;2023-02-23T13:15:08;101698.66;;;7.53;100.00
6565;BME280;3316;44.118;27.258;2023-02-23T13:17:36;101697.84;;;7.56;100.00
6565;BME280;3316;44.118;27.258;2023-02-23T13:20:22;101702.31;;;7.63;100.00
6565;BME280;3316;44.118;27.258;2023-02-23T13:22:54;101707.28;;;7.48;100.00
6565;BME280;3316;44.118;27.258;2023-02-23T13:30:59;101688.69;;;7.34;100.00
6565;BME280;3316;44.118;27.258;2023-02-23T13:33:27;101693.63;;;7.19;100.00
6565;BME280;3316;44.118;27.258;2023-02-23T13:36:00;101648.38;;;6.83;100.00
6565;BME280;3316;44.118;27.258;2023-02-23T13:41:30;101689.16;;;7.13;100.00
6565;BME280;3316;44.118;27.258;2023-02-23T13:51:45;101694.41;;;7.15;100.00
6565;BME280;3316;44.118;27.258;2023-02-23T13:56:46;101700.53;;;7.15;100.00
6565;BME280;3316;44.118;27.258;2023-02-23T13:59:18;101679.41;;;7.06;100.00
6565;BME280;3316;44.118;27.258;2023-02-23T14:01:47;101696.16;;;7.14;100.00
6565;BME280;3316;44.118;27.258;2023-02-23T14:04:27;101688.00;;;7.01;100.00
6565;BME280;3316;44.118;27.258;2023-02-23T14:07:02;101686.16;;;6.95;100.00
6565;BME280;3316;44.118;27.258;2023-02-23T14:09:32;101692.28;;;6.96;100.00
6565;BME280;3316;44.118;27.258;2023-02-23T14:12:12;101697.69;;;7.05;100.00
6565;BME280;3316;44.118;27.258;2023-02-23T14:14:42;101696.88;;;7.07;100.00
6565;BME280;3316;44.118;27.258;2023-02-23T14:20:18;101705.41;;;6.99;100.00
6565;BME280;3316;44.118;27.258;2023-02-23T14:22:35;101696.47;;;6.88;100.00
6565;BME280;3316;44.118;27.258;2023-02-23T14:27:58;101736.31;;;6.76;100.00
6565;BME280;3316;44.118;27.258;2023-02-23T14:30:29;101716.16;;;6.72;100.00
6565;BME280;3316;44.118;27.258;2023-02-23T14:33:49;101715.56;;;6.84;100.00
6565;BME280;3316;44.118;27.258;2023-02-23T14:38:45;101723.47;;;6.87;100.00
6565;BME280;3316;44.118;27.258;2023-02-23T14:41:11;101697.25;;;6.84;100.00
6565;BME280;3316;44.118;27.258;2023-02-23T14:46:19;101717.22;;;6.80;100.00
6565;BME280;3316;44.118;27.258;2023-02-23T14:48:56;101710.06;;;6.73;100.00
6565;BME280;3316;44.118;27.258;2023-02-23T14:51:46;101716.22;;;6.75;100.00
6565;BME280;3316;44.118;27.258;2023-02-23T14:56:52;101698.00;;;6.78;100.00
6565;BME280;3316;44.118;27.258;2023-02-23T14:59:22;101722.38;;;6.77;100.00
6565;BME280;3316;44.118;27.258;2023-02-23T15:01:50;101717.06;;;6.73;100.00
6565;BME280;3316;44.118;27.258;2023-02-23T15:04:19;101704.16;;;6.80;100.00
6565;BME280;3316;44.118;27.258;2023-02-23T15:06:45;101717.13;;;6.76;100.00
6565;BME280;3316;44.118;27.258;2023-02-23T15:09:37;101714.53;;;6.77;100.00